Raybon, Georgia
Current Conditions -  °F | °C
As of 4:35 PM on Wednesday 26 Nov 2014 (Local Time) from KAYS Reporting Station
Clear Clear  
Wind Chill: 62°   Ceiling: Unl
Heat Index: 62°   Visibility: 10mi
Dew Point: 36°   Wind: 8mph
Humidity: 38%   Direction: 300°WNW
Pressure: 30.12"   Gusts: NA
Location:  31.1753°N, 81.969°W
Report Text: KAYS 262135Z AUTO 30007KT 10SM CLR 17/02 A3012 RMK AO2 T01690024
Loading
Personal Weather Stations






























Interactive Weather Map New forecast layout! Learn more

10-Day Weather Forecast

Advertisements
Track Severe Weather on mobile